createdAt,value
2018-05-14T00:01:01.772Z,15.3
2018-05-14T00:02:08.704Z,15.3
2018-05-14T00:03:15.910Z,15.2
2018-05-14T00:04:23.121Z,15.2
2018-05-14T00:05:30.329Z,15.2
2018-05-14T00:06:37.259Z,15.2
2018-05-14T00:07:44.467Z,15.3
2018-05-14T00:08:51.672Z,15.2
2018-05-14T00:09:58.881Z,15.2
2018-05-14T00:11:06.096Z,15.2
2018-05-14T00:12:13.296Z,15.1
2018-05-14T00:13:20.504Z,15.1
2018-05-14T00:14:27.713Z,15
2018-05-14T00:15:34.918Z,15
2018-05-14T00:16:42.130Z,15
2018-05-14T00:17:49.063Z,15
2018-05-14T00:18:56.274Z,15
2018-05-14T00:20:03.476Z,15
2018-05-14T00:21:10.689Z,15
2018-05-14T00:22:17.898Z,15.1
2018-05-14T00:23:25.103Z,15.1
2018-05-14T00:24:32.309Z,15.1
2018-05-14T00:25:39.513Z,15.2
2018-05-14T00:26:46.722Z,15.2
2018-05-14T00:27:53.937Z,15.2
2018-05-14T00:29:00.872Z,15.2
2018-05-14T00:30:08.083Z,15.2
2018-05-14T00:31:15.301Z,15.2
2018-05-14T00:32:22.506Z,15.2
2018-05-14T00:33:29.710Z,15.2
2018-05-14T00:34:36.918Z,15.2
2018-05-14T00:35:44.123Z,15.2
2018-05-14T00:36:51.325Z,15.2
2018-05-14T00:37:58.265Z,15.2
2018-05-14T00:39:05.192Z,15.2
2018-05-14T00:40:12.122Z,15.2
2018-05-14T00:41:19.329Z,15.2
2018-05-14T00:42:26.542Z,15.1
2018-05-14T00:43:33.467Z,15.1
2018-05-14T00:44:40.677Z,15.1
2018-05-14T00:45:47.889Z,15.1
2018-05-14T00:46:55.101Z,15.1
2018-05-14T00:48:02.306Z,15
2018-05-14T00:49:09.511Z,15
2018-05-14T00:50:16.720Z,15
2018-05-14T00:51:23.927Z,15
2018-05-14T00:52:31.130Z,15
2018-05-14T00:53:38.062Z,15
2018-05-14T00:54:45.263Z,15
2018-05-14T00:55:52.469Z,15
2018-05-14T00:56:59.675Z,15
2018-05-14T00:58:06.881Z,15
2018-05-14T00:59:14.091Z,14.9
2018-05-14T01:00:21.034Z,14.9
2018-05-14T01:01:28.233Z,14.9
2018-05-14T01:02:35.445Z,14.9
2018-05-14T01:03:42.647Z,14.9
2018-05-14T01:04:49.578Z,14.9
2018-05-14T01:05:56.785Z,14.9
2018-05-14T01:07:03.991Z,14.9
2018-05-14T01:08:11.196Z,14.9
2018-05-14T01:09:18.128Z,14.9
2018-05-14T01:10:25.061Z,14.9
2018-05-14T01:11:32.270Z,14.9
2018-05-14T01:12:39.486Z,14.9
2018-05-14T01:13:46.419Z,14.8
2018-05-14T01:14:53.630Z,14.8
2018-05-14T01:16:00.831Z,14.8
2018-05-14T01:17:08.044Z,14.8
2018-05-14T01:18:15.240Z,14.8
2018-05-14T01:19:22.447Z,14.8
2018-05-14T01:20:29.651Z,14.8
2018-05-14T01:21:36.585Z,14.7
2018-05-14T01:22:43.793Z,14.7
2018-05-14T01:23:50.994Z,14.7
2018-05-14T01:24:58.201Z,14.7
2018-05-14T01:26:05.409Z,14.7
2018-05-14T01:27:12.348Z,14.7
2018-05-14T01:28:19.551Z,14.7
2018-05-14T01:29:26.479Z,14.7
2018-05-14T01:30:33.694Z,14.7
2018-05-14T01:31:40.899Z,14.7
2018-05-14T01:32:48.102Z,14.6
2018-05-14T01:33:55.309Z,14.6
2018-05-14T01:35:02.515Z,14.6
2018-05-14T01:36:09.453Z,14.6
2018-05-14T01:37:16.666Z,14.6
2018-05-14T01:38:23.874Z,14.6
2018-05-14T01:39:31.077Z,14.6
2018-05-14T01:40:38.285Z,14.6
2018-05-14T01:41:45.491Z,14.6
2018-05-14T01:42:52.421Z,14.6
2018-05-14T01:43:59.628Z,14.6
2018-05-14T01:45:06.840Z,14.6
2018-05-14T01:46:14.040Z,14.6
2018-05-14T01:47:21.246Z,14.5
2018-05-14T01:48:28.451Z,14.5
2018-05-14T01:49:35.680Z,14.5
2018-05-14T01:50:42.334Z,14.5
2018-05-14T01:51:49.262Z,14.5
2018-05-14T01:52:56.472Z,14.6
2018-05-14T01:54:03.677Z,14.6
2018-05-14T01:55:10.881Z,14.6
2018-05-14T01:56:18.097Z,14.6
2018-05-14T01:57:25.302Z,14.6
2018-05-14T01:58:32.506Z,14.6
2018-05-14T01:59:39.711Z,14.6
2018-05-14T02:00:46.914Z,14.6
2018-05-14T02:01:54.121Z,14.6
2018-05-14T02:03:01.327Z,14.6
2018-05-14T02:04:08.347Z,14.6
2018-05-14T02:05:15.642Z,14.6
2018-05-14T02:06:22.854Z,14.6
2018-05-14T02:07:30.045Z,14.6
2018-05-14T02:08:37.250Z,14.6
2018-05-14T02:09:44.454Z,14.6
2018-05-14T02:10:51.658Z,14.6
2018-05-14T02:11:58.862Z,14.6
2018-05-14T02:13:06.064Z,14.6
2018-05-14T02:14:13.270Z,14.6
2018-05-14T02:15:20.473Z,14.6
2018-05-14T02:16:27.681Z,14.6
2018-05-14T02:17:34.890Z,14.6
2018-05-14T02:18:42.101Z,14.6
2018-05-14T02:19:49.328Z,14.6
2018-05-14T02:20:56.533Z,14.6
2018-05-14T02:22:03.742Z,14.6
2018-05-14T02:23:10.942Z,14.6
2018-05-14T02:24:17.875Z,14.6
2018-05-14T02:25:24.531Z,14.6
2018-05-14T02:26:31.757Z,14.6
2018-05-14T02:27:38.967Z,14.6
2018-05-14T02:28:46.252Z,14.6
2018-05-14T02:29:53.188Z,14.6
2018-05-14T02:31:00.398Z,14.6
2018-05-14T02:32:07.605Z,14.5
2018-05-14T02:33:14.809Z,14.5
2018-05-14T02:34:22.011Z,14.5
2018-05-14T02:35:29.222Z,14.5
2018-05-14T02:36:36.153Z,14.5
2018-05-14T02:37:43.361Z,14.5
2018-05-14T02:38:50.570Z,14.5
2018-05-14T02:39:57.501Z,14.5
2018-05-14T02:41:04.703Z,14.5
2018-05-14T02:42:11.911Z,14.5
2018-05-14T02:43:19.125Z,14.4
2018-05-14T02:44:26.318Z,14.4
2018-05-14T02:45:33.525Z,14.4
2018-05-14T02:46:40.739Z,14.5
2018-05-14T02:47:47.933Z,14.5
2018-05-14T02:48:55.141Z,14.5
2018-05-14T02:50:02.348Z,14.5
2018-05-14T02:51:09.557Z,14.4
2018-05-14T02:52:16.490Z,14.5
2018-05-14T02:53:23.695Z,14.5
2018-05-14T02:54:30.628Z,14.5
2018-05-14T02:55:37.840Z,14.5
2018-05-14T02:56:45.045Z,14.5
2018-05-14T02:57:52.252Z,14.5
2018-05-14T02:58:59.457Z,14.5
2018-05-14T03:00:06.666Z,14.5
2018-05-14T03:01:13.873Z,14.5
2018-05-14T03:02:21.082Z,14.5
2018-05-14T03:03:28.289Z,14.5
2018-05-14T03:04:35.487Z,14.5
2018-05-14T03:05:42.691Z,14.5
2018-05-14T03:06:49.895Z,14.5
2018-05-14T03:07:57.095Z,14.5
2018-05-14T03:09:04.302Z,14.5
2018-05-14T03:10:11.502Z,14.5
2018-05-14T03:11:18.441Z,14.5
2018-05-14T03:12:25.637Z,14.5
2018-05-14T03:13:32.846Z,14.5
2018-05-14T03:14:40.044Z,14.5
2018-05-14T03:15:47.250Z,14.5
2018-05-14T03:16:54.549Z,14.5
2018-05-14T03:18:01.736Z,14.5
2018-05-14T03:19:08.945Z,14.5
2018-05-14T03:20:16.143Z,14.5
2018-05-14T03:21:23.350Z,14.6
2018-05-14T03:22:30.552Z,14.6
2018-05-14T03:23:37.758Z,14.6
2018-05-14T03:24:44.968Z,14.6
2018-05-14T03:25:52.164Z,14.6
2018-05-14T03:26:59.371Z,14.6
2018-05-14T03:28:06.579Z,14.6
2018-05-14T03:29:13.784Z,14.6
2018-05-14T03:30:20.717Z,14.6
2018-05-14T03:31:27.927Z,14.6
2018-05-14T03:32:35.128Z,14.6
2018-05-14T03:33:42.335Z,14.6
2018-05-14T03:34:49.269Z,14.6
2018-05-14T03:35:56.472Z,14.6
2018-05-14T03:37:03.681Z,14.7
2018-05-14T03:38:10.885Z,14.7
2018-05-14T03:39:18.099Z,14.8
2018-05-14T03:40:25.309Z,14.8
2018-05-14T03:41:32.517Z,14.8
2018-05-14T03:42:39.721Z,14.9
2018-05-14T03:43:46.931Z,14.9
2018-05-14T03:44:53.866Z,14.9
2018-05-14T03:46:01.069Z,14.8
2018-05-14T03:47:08.275Z,14.8
2018-05-14T03:48:15.484Z,14.9
2018-05-14T03:49:22.692Z,14.8
2018-05-14T03:50:29.903Z,14.9
2018-05-14T03:51:37.107Z,14.8
2018-05-14T03:52:44.310Z,14.8
2018-05-14T03:53:51.516Z,14.8
2018-05-14T03:54:58.733Z,14.8
2018-05-14T03:56:05.941Z,14.8
2018-05-14T03:57:12.879Z,14.8
2018-05-14T03:58:20.082Z,14.8
2018-05-14T03:59:27.287Z,14.8
2018-05-14T04:00:34.496Z,14.7
2018-05-14T04:01:41.700Z,14.7
2018-05-14T04:02:48.629Z,14.7
2018-05-14T04:03:55.832Z,14.7
2018-05-14T04:05:03.038Z,14.7
2018-05-14T04:06:10.238Z,14.7
2018-05-14T04:07:17.443Z,14.6
2018-05-14T04:08:24.764Z,14.6
2018-05-14T04:09:32.072Z,14.6
2018-05-14T04:10:39.273Z,14.7
2018-05-14T04:11:46.486Z,14.6
2018-05-14T04:12:53.693Z,14.6
2018-05-14T04:14:00.902Z,14.6
2018-05-14T04:15:08.122Z,14.7
2018-05-14T04:16:15.325Z,14.7
2018-05-14T04:17:22.551Z,14.7
2018-05-14T22:00:06.941Z,16.2
2018-05-14T22:01:14.147Z,16.2
2018-05-14T22:02:21.354Z,16.3
2018-05-14T22:03:28.557Z,16.3
2018-05-14T22:04:35.486Z,16.3
2018-05-14T22:05:42.714Z,16.3
2018-05-14T22:06:49.926Z,16.3
2018-05-14T22:07:56.856Z,16.3
2018-05-14T22:09:04.062Z,16.2
2018-05-14T22:10:11.269Z,16.2
2018-05-14T22:11:18.481Z,16.2
2018-05-14T22:12:25.689Z,16.2
2018-05-14T22:13:32.905Z,16.2
2018-05-14T22:14:40.104Z,16.1
2018-05-14T22:15:47.316Z,16.1
2018-05-14T22:16:53.976Z,16.1
2018-05-14T22:18:00.907Z,16.1
2018-05-14T22:19:08.120Z,16.1
2018-05-14T22:20:15.323Z,16
2018-05-14T22:21:22.618Z,16
2018-05-14T22:22:29.821Z,16
2018-05-14T22:23:37.031Z,15.9
2018-05-14T22:24:44.240Z,15.9
2018-05-14T22:25:51.446Z,15.9
2018-05-14T22:26:58.378Z,15.9
2018-05-14T22:28:05.587Z,15.9
2018-05-14T22:29:12.797Z,15.9
2018-05-14T22:30:20.005Z,15.8
2018-05-14T22:31:27.216Z,15.8
2018-05-14T22:32:34.426Z,15.8
2018-05-14T22:33:41.632Z,15.8
2018-05-14T22:34:48.838Z,15.7
2018-05-14T22:35:55.835Z,15.7
2018-05-14T22:37:03.043Z,15.6
2018-05-14T22:38:10.260Z,15.6
2018-05-14T22:39:17.186Z,15.6
2018-05-14T22:40:24.392Z,15.6
2018-05-14T22:41:31.322Z,15.6
2018-05-14T22:42:38.528Z,15.6
2018-05-14T22:43:45.736Z,15.6
2018-05-14T22:44:52.940Z,15.5
2018-05-14T22:46:00.147Z,15.6
2018-05-14T22:47:07.355Z,15.5
2018-05-14T22:48:14.558Z,15.5
2018-05-14T22:49:21.776Z,15.5
2018-05-14T22:50:28.975Z,15.4
2018-05-14T22:51:35.642Z,15.4
2018-05-14T22:52:42.846Z,15.5
2018-05-14T22:53:50.052Z,15.4
2018-05-14T22:54:56.980Z,15.4
2018-05-14T22:56:03.914Z,15.4
2018-05-14T22:57:11.127Z,15.4
2018-05-14T22:58:18.331Z,15.4
2018-05-14T22:59:25.556Z,15.4
2018-05-14T23:00:32.466Z,15.4
2018-05-14T23:01:39.682Z,15.4
2018-05-14T23:02:46.892Z,15.4
2018-05-14T23:03:54.099Z,15.4
2018-05-14T23:05:01.312Z,15.3
2018-05-14T23:06:08.518Z,15.3
2018-05-14T23:07:15.455Z,15.3
2018-05-14T23:08:22.687Z,15.3
2018-05-14T23:09:29.892Z,15.3
2018-05-14T23:10:37.097Z,15.4
2018-05-14T23:11:44.310Z,15.4
2018-05-14T23:12:51.246Z,15.4
2018-05-14T23:13:58.453Z,15.4
2018-05-14T23:15:05.381Z,15.3
2018-05-14T23:16:12.318Z,15.3
2018-05-14T23:17:19.584Z,15.3
2018-05-14T23:18:26.795Z,15.3
2018-05-14T23:19:33.990Z,15.3
2018-05-14T23:20:41.200Z,15.3
2018-05-14T23:21:48.136Z,15.3
2018-05-14T23:22:55.343Z,15.2
2018-05-14T23:24:02.553Z,15.2
2018-05-14T23:25:09.760Z,15.2
2018-05-14T23:26:16.965Z,15.3
2018-05-14T23:27:24.172Z,15.2
2018-05-14T23:28:31.372Z,15.2
2018-05-14T23:29:38.589Z,15.2
2018-05-14T23:30:45.817Z,15.2
2018-05-14T23:31:52.750Z,15.2
2018-05-14T23:32:59.964Z,15.2
2018-05-14T23:34:07.166Z,15.2
2018-05-14T23:35:14.369Z,15.1
2018-05-14T23:36:21.569Z,15.1
2018-05-14T23:37:28.779Z,15.1
2018-05-14T23:38:35.981Z,15.1
2018-05-14T23:39:43.291Z,15.1
2018-05-14T23:40:50.484Z,15.1
2018-05-14T23:41:57.415Z,15.1
2018-05-14T23:43:04.345Z,15.1
2018-05-14T23:44:11.550Z,15.1
2018-05-14T23:45:18.483Z,15.1
2018-05-14T23:46:25.692Z,15
2018-05-14T23:47:32.897Z,15
2018-05-14T23:48:40.096Z,15
2018-05-14T23:49:47.304Z,15
2018-05-14T23:50:54.506Z,15
2018-05-14T23:52:01.718Z,15
2018-05-14T23:53:08.931Z,14.9
2018-05-14T23:54:16.139Z,14.9
2018-05-14T23:55:23.340Z,14.9
2018-05-14T23:56:30.545Z,15
2018-05-14T23:57:37.751Z,14.9
2018-05-14T23:58:44.957Z,15
2018-05-14T23:59:52.163Z,15
